sensor_id;sensor_type;location;lat;lon;timestamp;temperature;humidity
47540;DHT22;33280;52.152;21.052;2023-04-10T00:00:02;9.40;99.90
47540;DHT22;33280;52.152;21.052;2023-04-10T00:02:29;9.40;99.90
47540;DHT22;33280;52.152;21.052;2023-04-10T00:04:58;9.40;99.90
47540;DHT22;33280;52.152;21.052;2023-04-10T00:07:25;9.40;99.90
47540;DHT22;33280;52.152;21.052;2023-04-10T00:09:52;9.40;99.90
47540;DHT22;33280;52.152;21.052;2023-04-10T00:12:19;9.40;99.90
47540;DHT22;33280;52.152;21.052;2023-04-10T00:14:46;9.30;99.90
47540;DHT22;33280;52.152;21.052;2023-04-10T00:17:15;9.30;99.90
47540;DHT22;33280;52.152;21.052;2023-04-10T00:19:42;9.30;99.90
47540;DHT22;33280;52.152;21.052;2023-04-10T00:22:09;9.30;99.90
47540;DHT22;33280;52.152;21.052;2023-04-10T00:24:37;9.30;99.90
47540;DHT22;33280;52.152;21.052;2023-04-10T00:27:03;9.30;99.90
47540;DHT22;33280;52.152;21.052;2023-04-10T00:29:31;9.20;99.90
47540;DHT22;33280;52.152;21.052;2023-04-10T00:31:59;9.20;99.90
47540;DHT22;33280;52.152;21.052;2023-04-10T00:34:25;9.20;99.90
47540;DHT22;33280;52.152;21.052;2023-04-10T00:36:53;9.20;99.90
47540;DHT22;33280;52.152;21.052;2023-04-10T00:39:19;9.10;99.90
47540;DHT22;33280;52.152;21.052;2023-04-10T00:41:47;9.10;99.90
47540;DHT22;33280;52.152;21.052;2023-04-10T00:44:15;9.10;99.90
47540;DHT22;33280;52.152;21.052;2023-04-10T00:46:42;9.10;99.90
47540;DHT22;33280;52.152;21.052;2023-04-10T00:49:09;9.00;99.90
47540;DHT22;33280;52.152;21.052;2023-04-10T00:51:36;9.10;99.90
47540;DHT22;33280;52.152;21.052;2023-04-10T00:54:03;9.00;99.90
47540;DHT22;33280;52.152;21.052;2023-04-10T00:56:30;9.00;99.90
47540;DHT22;33280;52.152;21.052;2023-04-10T00:58:57;9.00;99.90
47540;DHT22;33280;52.152;21.052;2023-04-10T01:01:24;9.00;99.90
47540;DHT22;33280;52.152;21.052;2023-04-10T01:03:52;9.00;99.90
47540;DHT22;33280;52.152;21.052;2023-04-10T01:06:43;8.90;99.90
47540;DHT22;33280;52.152;21.052;2023-04-10T01:09:46;8.90;99.90
47540;DHT22;33280;52.152;21.052;2023-04-10T01:12:37;8.90;99.90
47540;DHT22;33280;52.152;21.052;2023-04-10T01:15:15;8.80;99.90
47540;DHT22;33280;52.152;21.052;2023-04-10T01:18:01;8.90;99.90
47540;DHT22;33280;52.152;21.052;2023-04-10T01:20:32;8.90;99.90
47540;DHT22;33280;52.152;21.052;2023-04-10T01:26:09;8.80;99.90
47540;DHT22;33280;52.152;21.052;2023-04-10T01:29:00;8.80;99.90
47540;DHT22;33280;52.152;21.052;2023-04-10T01:31:41;8.80;99.90
47540;DHT22;33280;52.152;21.052;2023-04-10T01:34:20;8.80;99.90
47540;DHT22;33280;52.152;21.052;2023-04-10T01:36:54;8.70;99.90
47540;DHT22;33280;52.152;21.052;2023-04-10T01:39:21;8.70;99.90
47540;DHT22;33280;52.152;21.052;2023-04-10T01:41:58;8.70;99.90
47540;DHT22;33280;52.152;21.052;2023-04-10T01:44:28;8.70;99.90
47540;DHT22;33280;52.152;21.052;2023-04-10T01:46:56;8.70;99.90
47540;DHT22;33280;52.152;21.052;2023-04-10T01:49:26;8.60;99.90
47540;DHT22;33280;52.152;21.052;2023-04-10T01:51:55;8.60;99.90
47540;DHT22;33280;52.152;21.052;2023-04-10T01:54:26;8.60;99.90
47540;DHT22;33280;52.152;21.052;2023-04-10T01:56:54;8.50;99.90
47540;DHT22;33280;52.152;21.052;2023-04-10T01:59:22;8.50;99.90
47540;DHT22;33280;52.152;21.052;2023-04-10T02:01:57;8.50;99.90
47540;DHT22;33280;52.152;21.052;2023-04-10T02:04:25;8.50;99.90
47540;DHT22;33280;52.152;21.052;2023-04-10T02:07:03;8.60;99.90
47540;DHT22;33280;52.152;21.052;2023-04-10T02:12:10;8.60;99.90
47540;DHT22;33280;52.152;21.052;2023-04-10T02:14:42;8.70;99.90
47540;DHT22;33280;52.152;21.052;2023-04-10T02:17:13;8.60;99.90
47540;DHT22;33280;52.152;21.052;2023-04-10T02:19:42;8.60;99.90
47540;DHT22;33280;52.152;21.052;2023-04-10T02:22:11;8.60;99.90
47540;DHT22;33280;52.152;21.052;2023-04-10T02:24:38;8.50;99.90
47540;DHT22;33280;52.152;21.052;2023-04-10T02:27:05;8.50;99.90
47540;DHT22;33280;52.152;21.052;2023-04-10T02:29:32;8.50;99.90
47540;DHT22;33280;52.152;21.052;2023-04-10T02:31:59;8.50;99.90
47540;DHT22;33280;52.152;21.052;2023-04-10T02:34:25;8.50;99.90
47540;DHT22;33280;52.152;21.052;2023-04-10T02:36:52;8.50;99.90
47540;DHT22;33280;52.152;21.052;2023-04-10T02:39:20;8.50;99.90
47540;DHT22;33280;52.152;21.052;2023-04-10T02:41:47;8.50;99.90
47540;DHT22;33280;52.152;21.052;2023-04-10T02:44:14;8.50;99.90
47540;DHT22;33280;52.152;21.052;2023-04-10T02:46:41;8.50;99.90
47540;DHT22;33280;52.152;21.052;2023-04-10T02:49:08;8.40;99.90
47540;DHT22;33280;52.152;21.052;2023-04-10T02:51:35;8.40;99.90
47540;DHT22;33280;52.152;21.052;2023-04-10T02:54:02;8.50;99.90
47540;DHT22;33280;52.152;21.052;2023-04-10T02:56:33;8.50;99.90
47540;DHT22;33280;52.152;21.052;2023-04-10T02:59:01;8.40;99.90
47540;DHT22;33280;52.152;21.052;2023-04-10T03:01:29;8.40;99.90
47540;DHT22;33280;52.152;21.052;2023-04-10T03:03:56;8.40;99.90
47540;DHT22;33280;52.152;21.052;2023-04-10T03:06:24;8.30;99.90
47540;DHT22;33280;52.152;21.052;2023-04-10T03:08:54;8.30;99.90
47540;DHT22;33280;52.152;21.052;2023-04-10T03:11:21;8.20;99.90
47540;DHT22;33280;52.152;21.052;2023-04-10T03:13:49;8.20;99.90
47540;DHT22;33280;52.152;21.052;2023-04-10T03:16:16;8.20;99.90
47540;DHT22;33280;52.152;21.052;2023-04-10T03:18:44;8.20;99.90
47540;DHT22;33280;52.152;21.052;2023-04-10T03:21:13;8.30;99.90
47540;DHT22;33280;52.152;21.052;2023-04-10T03:26:28;8.30;99.90
47540;DHT22;33280;52.152;21.052;2023-04-10T03:28:55;8.30;99.90
47540;DHT22;33280;52.152;21.052;2023-04-10T03:31:22;8.30;99.90
47540;DHT22;33280;52.152;21.052;2023-04-10T03:33:49;8.30;99.90
47540;DHT22;33280;52.152;21.052;2023-04-10T03:36:16;8.30;99.90
47540;DHT22;33280;52.152;21.052;2023-04-10T03:38:43;8.30;99.90
47540;DHT22;33280;52.152;21.052;2023-04-10T03:41:11;8.40;99.90
47540;DHT22;33280;52.152;21.052;2023-04-10T03:43:38;8.40;99.90
47540;DHT22;33280;52.152;21.052;2023-04-10T03:46:05;8.40;99.90
47540;DHT22;33280;52.152;21.052;2023-04-10T03:48:35;8.30;99.90
47540;DHT22;33280;52.152;21.052;2023-04-10T03:51:03;8.10;99.90
47540;DHT22;33280;52.152;21.052;2023-04-10T03:56:18;8.30;99.90
47540;DHT22;33280;52.152;21.052;2023-04-10T03:58:46;8.20;99.90
47540;DHT22;33280;52.152;21.052;2023-04-10T04:01:13;8.30;99.90
47540;DHT22;33280;52.152;21.052;2023-04-10T04:03:40;8.30;99.90
47540;DHT22;33280;52.152;21.052;2023-04-10T04:06:08;8.30;99.90
47540;DHT22;33280;52.152;21.052;2023-04-10T04:08:34;8.30;99.90
47540;DHT22;33280;52.152;21.052;2023-04-10T04:11:02;8.40;99.90
47540;DHT22;33280;52.152;21.052;2023-04-10T04:13:28;8.40;99.90
47540;DHT22;33280;52.152;21.052;2023-04-10T04:15:55;8.30;99.90
47540;DHT22;33280;52.152;21.052;2023-04-10T04:18:22;8.30;99.90
47540;DHT22;33280;52.152;21.052;2023-04-10T04:20:49;8.30;99.90
47540;DHT22;33280;52.152;21.052;2023-04-10T04:23:16;8.30;99.90
47540;DHT22;33280;52.152;21.052;2023-04-10T04:25:43;8.30;99.90
47540;DHT22;33280;52.152;21.052;2023-04-10T04:28:13;8.30;99.90
47540;DHT22;33280;52.152;21.052;2023-04-10T04:30:46;8.30;99.90
47540;DHT22;33280;52.152;21.052;2023-04-10T04:33:13;8.40;99.90
47540;DHT22;33280;52.152;21.052;2023-04-10T04:35:52;8.40;99.90
47540;DHT22;33280;52.152;21.052;2023-04-10T04:38:23;8.50;99.90
47540;DHT22;33280;52.152;21.052;2023-04-10T04:40:49;8.50;99.90
47540;DHT22;33280;52.152;21.052;2023-04-10T04:43:16;8.50;99.90
47540;DHT22;33280;52.152;21.052;2023-04-10T04:45:47;8.50;99.90
47540;DHT22;33280;52.152;21.052;2023-04-10T04:48:16;8.50;99.90
47540;DHT22;33280;52.152;21.052;2023-04-10T04:50:45;8.50;99.90
47540;DHT22;33280;52.152;21.052;2023-04-10T04:53:12;8.60;99.90
47540;DHT22;33280;52.152;21.052;2023-04-10T04:55:40;8.60;99.90
47540;DHT22;33280;52.152;21.052;2023-04-10T04:58:07;8.80;99.90
47540;DHT22;33280;52.152;21.052;2023-04-10T05:00:34;8.90;99.90
47540;DHT22;33280;52.152;21.052;2023-04-10T05:03:01;8.90;99.90
47540;DHT22;33280;52.152;21.052;2023-04-10T05:05:28;8.80;99.90
47540;DHT22;33280;52.152;21.052;2023-04-10T05:07:55;8.90;99.90
47540;DHT22;33280;52.152;21.052;2023-04-10T05:10:22;8.90;99.90
47540;DHT22;33280;52.152;21.052;2023-04-10T05:12:50;9.00;99.90
47540;DHT22;33280;52.152;21.052;2023-04-10T05:15:38;9.10;99.90
47540;DHT22;33280;52.152;21.052;2023-04-10T05:18:08;9.10;99.90
47540;DHT22;33280;52.152;21.052;2023-04-10T05:20:35;9.20;99.90
47540;DHT22;33280;52.152;21.052;2023-04-10T05:23:02;9.30;99.90
47540;DHT22;33280;52.152;21.052;2023-04-10T05:25:29;9.30;99.90
47540;DHT22;33280;52.152;21.052;2023-04-10T05:30:22;9.40;99.90
47540;DHT22;33280;52.152;21.052;2023-04-10T05:32:50;9.50;99.90
47540;DHT22;33280;52.152;21.052;2023-04-10T05:35:17;9.60;99.90
47540;DHT22;33280;52.152;21.052;2023-04-10T05:37:44;9.60;99.90
47540;DHT22;33280;52.152;21.052;2023-04-10T05:40:11;9.70;99.90
47540;DHT22;33280;52.152;21.052;2023-04-10T05:42:38;9.70;99.90
47540;DHT22;33280;52.152;21.052;2023-04-10T05:45:05;9.70;99.90
47540;DHT22;33280;52.152;21.052;2023-04-10T05:47:32;9.70;99.90
47540;DHT22;33280;52.152;21.052;2023-04-10T05:50:00;9.80;99.90
47540;DHT22;33280;52.152;21.052;2023-04-10T05:52:26;9.90;99.90
47540;DHT22;33280;52.152;21.052;2023-04-10T05:54:53;9.90;99.90
47540;DHT22;33280;52.152;21.052;2023-04-10T05:57:20;10.00;99.90
47540;DHT22;33280;52.152;21.052;2023-04-10T05:59:47;9.90;99.90
47540;DHT22;33280;52.152;21.052;2023-04-10T06:02:14;10.00;99.90
47540;DHT22;33280;52.152;21.052;2023-04-10T06:04:42;10.00;99.90
47540;DHT22;33280;52.152;21.052;2023-04-10T06:07:09;9.90;99.90
47540;DHT22;33280;52.152;21.052;2023-04-10T06:09:36;9.90;99.90
47540;DHT22;33280;52.152;21.052;2023-04-10T06:12:03;10.00;99.90
47540;DHT22;33280;52.152;21.052;2023-04-10T06:14:30;10.10;99.90
47540;DHT22;33280;52.152;21.052;2023-04-10T06:16:57;10.20;99.90
47540;DHT22;33280;52.152;21.052;2023-04-10T06:19:23;10.30;99.90
47540;DHT22;33280;52.152;21.052;2023-04-10T06:21:51;10.40;99.90
47540;DHT22;33280;52.152;21.052;2023-04-10T06:24:21;10.50;99.90
47540;DHT22;33280;52.152;21.052;2023-04-10T06:26:48;10.60;99.90
47540;DHT22;33280;52.152;21.052;2023-04-10T06:29:15;10.70;99.90
47540;DHT22;33280;52.152;21.052;2023-04-10T06:31:42;10.70;99.90
47540;DHT22;33280;52.152;21.052;2023-04-10T06:34:10;10.70;99.90
47540;DHT22;33280;52.152;21.052;2023-04-10T06:36:37;10.80;99.90
47540;DHT22;33280;52.152;21.052;2023-04-10T06:39:04;10.80;99.90
47540;DHT22;33280;52.152;21.052;2023-04-10T06:41:32;11.00;99.90
47540;DHT22;33280;52.152;21.052;2023-04-10T06:44:02;11.00;99.90
47540;DHT22;33280;52.152;21.052;2023-04-10T06:46:29;11.10;99.90
47540;DHT22;33280;52.152;21.052;2023-04-10T06:48:56;11.20;99.90
47540;DHT22;33280;52.152;21.052;2023-04-10T06:51:23;11.30;99.90
47540;DHT22;33280;52.152;21.052;2023-04-10T06:53:50;11.40;99.90
47540;DHT22;33280;52.152;21.052;2023-04-10T06:56:17;11.50;99.90
47540;DHT22;33280;52.152;21.052;2023-04-10T06:58:43;11.60;99.90
47540;DHT22;33280;52.152;21.052;2023-04-10T07:01:10;11.70;99.90
47540;DHT22;33280;52.152;21.052;2023-04-10T07:03:37;11.70;99.90
47540;DHT22;33280;52.152;21.052;2023-04-10T07:06:04;11.80;99.90
47540;DHT22;33280;52.152;21.052;2023-04-10T07:08:32;11.90;99.90
47540;DHT22;33280;52.152;21.052;2023-04-10T07:10:58;12.00;99.90
47540;DHT22;33280;52.152;21.052;2023-04-10T07:13:26;12.10;99.90
47540;DHT22;33280;52.152;21.052;2023-04-10T07:15:52;12.10;99.90
47540;DHT22;33280;52.152;21.052;2023-04-10T07:18:21;12.20;99.90
47540;DHT22;33280;52.152;21.052;2023-04-10T07:20:49;12.30;99.90
47540;DHT22;33280;52.152;21.052;2023-04-10T07:23:16;12.40;99.90
47540;DHT22;33280;52.152;21.052;2023-04-10T07:25:45;12.40;99.90
47540;DHT22;33280;52.152;21.052;2023-04-10T07:28:12;12.50;99.90
47540;DHT22;33280;52.152;21.052;2023-04-10T07:30:39;12.60;99.90
47540;DHT22;33280;52.152;21.052;2023-04-10T07:33:06;12.80;99.90
47540;DHT22;33280;52.152;21.052;2023-04-10T07:35:33;12.80;99.90
47540;DHT22;33280;52.152;21.052;2023-04-10T07:38:00;12.90;99.90
47540;DHT22;33280;52.152;21.052;2023-04-10T07:40:27;13.00;99.90
47540;DHT22;33280;52.152;21.052;2023-04-10T07:42:54;13.10;99.90
47540;DHT22;33280;52.152;21.052;2023-04-10T07:45:21;13.10;99.90
47540;DHT22;33280;52.152;21.052;2023-04-10T07:47:48;13.20;99.90
47540;DHT22;33280;52.152;21.052;2023-04-10T07:50:15;13.20;99.90
47540;DHT22;33280;52.152;21.052;2023-04-10T07:52:42;13.30;99.90
47540;DHT22;33280;52.152;21.052;2023-04-10T07:55:09;13.30;99.90
47540;DHT22;33280;52.152;21.052;2023-04-10T07:57:36;13.40;99.90
47540;DHT22;33280;52.152;21.052;2023-04-10T08:00:03;13.30;99.90
47540;DHT22;33280;52.152;21.052;2023-04-10T08:02:30;13.40;99.90
47540;DHT22;33280;52.152;21.052;2023-04-10T08:04:57;13.50;99.90
47540;DHT22;33280;52.152;21.052;2023-04-10T08:07:24;13.60;99.90
47540;DHT22;33280;52.152;21.052;2023-04-10T08:09:51;13.70;99.90
47540;DHT22;33280;52.152;21.052;2023-04-10T08:12:18;13.90;99.90
47540;DHT22;33280;52.152;21.052;2023-04-10T08:14:48;14.10;99.90
47540;DHT22;33280;52.152;21.052;2023-04-10T08:17:17;14.40;99.90
47540;DHT22;33280;52.152;21.052;2023-04-10T08:19:44;14.60;99.90
47540;DHT22;33280;52.152;21.052;2023-04-10T08:22:13;14.70;99.90
47540;DHT22;33280;52.152;21.052;2023-04-10T08:24:41;15.00;99.90
47540;DHT22;33280;52.152;21.052;2023-04-10T08:27:07;15.30;99.90
47540;DHT22;33280;52.152;21.052;2023-04-10T08:29:34;15.90;99.90
47540;DHT22;33280;52.152;21.052;2023-04-10T08:32:01;16.90;99.90
47540;DHT22;33280;52.152;21.052;2023-04-10T08:34:29;17.70;99.90
47540;DHT22;33280;52.152;21.052;2023-04-10T08:36:56;18.40;99.90
47540;DHT22;33280;52.152;21.052;2023-04-10T08:39:38;18.70;99.90
47540;DHT22;33280;52.152;21.052;2023-04-10T08:42:06;18.90;99.90
47540;DHT22;33280;52.152;21.052;2023-04-10T08:44:33;18.90;99.90
47540;DHT22;33280;52.152;21.052;2023-04-10T08:47:02;19.30;99.90
47540;DHT22;33280;52.152;21.052;2023-04-10T08:52:07;20.00;99.90
47540;DHT22;33280;52.152;21.052;2023-04-10T08:54:38;19.70;99.90
47540;DHT22;33280;52.152;21.052;2023-04-10T08:57:07;19.80;99.90
47540;DHT22;33280;52.152;21.052;2023-04-10T08:59:36;20.00;99.90
47540;DHT22;33280;52.152;21.052;2023-04-10T09:02:08;19.70;99.90
47540;DHT22;33280;52.152;21.052;2023-04-10T09:04:35;19.90;99.90
47540;DHT22;33280;52.152;21.052;2023-04-10T09:07:02;20.00;99.90
47540;DHT22;33280;52.152;21.052;2023-04-10T09:09:29;20.20;99.90
47540;DHT22;33280;52.152;21.052;2023-04-10T09:12:00;20.50;99.90
47540;DHT22;33280;52.152;21.052;2023-04-10T09:14:30;20.60;99.90
47540;DHT22;33280;52.152;21.052;2023-04-10T09:17:31;20.90;99.90
47540;DHT22;33280;52.152;21.052;2023-04-10T09:19:59;21.00;99.90
47540;DHT22;33280;52.152;21.052;2023-04-10T09:22:34;21.10;99.90
47540;DHT22;33280;52.152;21.052;2023-04-10T09:25:02;21.40;99.90
47540;DHT22;33280;52.152;21.052;2023-04-10T09:27:31;21.40;99.90
47540;DHT22;33280;52.152;21.052;2023-04-10T09:30:06;21.70;99.90
47540;DHT22;33280;52.152;21.052;2023-04-10T09:32:44;21.80;99.90
47540;DHT22;33280;52.152;21.052;2023-04-10T09:35:13;22.10;99.90
47540;DHT22;33280;52.152;21.052;2023-04-10T09:37:45;22.50;99.90
47540;DHT22;33280;52.152;21.052;2023-04-10T09:40:23;22.90;98.70
47540;DHT22;33280;52.152;21.052;2023-04-10T09:42:52;23.20;96.50
47540;DHT22;33280;52.152;21.052;2023-04-10T09:45:19;23.30;93.30
47540;DHT22;33280;52.152;21.052;2023-04-10T09:48:05;23.30;93.80
47540;DHT22;33280;52.152;21.052;2023-04-10T09:50:36;23.70;92.60
47540;DHT22;33280;52.152;21.052;2023-04-10T09:53:07;23.40;90.40
47540;DHT22;33280;52.152;21.052;2023-04-10T09:55:37;23.70;89.50
47540;DHT22;33280;52.152;21.052;2023-04-10T09:58:05;23.90;90.20
47540;DHT22;33280;52.152;21.052;2023-04-10T10:00:40;23.80;86.50
47540;DHT22;33280;52.152;21.052;2023-04-10T10:03:09;24.00;86.30
47540;DHT22;33280;52.152;21.052;2023-04-10T10:05:46;24.30;85.90
47540;DHT22;33280;52.152;21.052;2023-04-10T10:08:14;24.50;83.70
47540;DHT22;33280;52.152;21.052;2023-04-10T10:10:53;24.50;81.90
47540;DHT22;33280;52.152;21.052;2023-04-10T10:13:27;24.70;83.90
47540;DHT22;33280;52.152;21.052;2023-04-10T10:16:14;25.20;80.50
47540;DHT22;33280;52.152;21.052;2023-04-10T10:19:15;25.30;77.90
47540;DHT22;33280;52.152;21.052;2023-04-10T10:21:43;25.20;77.60
47540;DHT22;33280;52.152;21.052;2023-04-10T10:24:12;25.60;76.50
47540;DHT22;33280;52.152;21.052;2023-04-10T10:26:39;25.60;75.80
47540;DHT22;33280;52.152;21.052;2023-04-10T10:29:08;25.80;74.60
47540;DHT22;33280;52.152;21.052;2023-04-10T10:31:40;25.90;73.60
47540;DHT22;33280;52.152;21.052;2023-04-10T10:34:08;25.90;72.80
47540;DHT22;33280;52.152;21.052;2023-04-10T10:36:38;26.10;71.10
47540;DHT22;33280;52.152;21.052;2023-04-10T10:39:33;25.70;69.30
47540;DHT22;33280;52.152;21.052;2023-04-10T10:42:15;25.10;71.00
47540;DHT22;33280;52.152;21.052;2023-04-10T10:44:56;24.70;73.00
47540;DHT22;33280;52.152;21.052;2023-04-10T10:47:29;24.10;73.50
47540;DHT22;33280;52.152;21.052;2023-04-10T10:50:01;24.30;77.20
47540;DHT22;33280;52.152;21.052;2023-04-10T10:52:50;24.30;75.70
47540;DHT22;33280;52.152;21.052;2023-04-10T10:57:58;23.50;76.10
47540;DHT22;33280;52.152;21.052;2023-04-10T11:05:54;24.50;74.80
47540;DHT22;33280;52.152;21.052;2023-04-10T11:08:36;24.80;72.20
47540;DHT22;33280;52.152;21.052;2023-04-10T11:11:08;25.20;71.60
47540;DHT22;33280;52.152;21.052;2023-04-10T11:13:37;26.00;72.50
47540;DHT22;33280;52.152;21.052;2023-04-10T11:16:05;26.60;67.20
47540;DHT22;33280;52.152;21.052;2023-04-10T11:21:22;27.40;64.40
47540;DHT22;33280;52.152;21.052;2023-04-10T11:31:30;28.00;59.50
47540;DHT22;33280;52.152;21.052;2023-04-10T11:34:07;28.70;58.70
47540;DHT22;33280;52.152;21.052;2023-04-10T11:36:40;29.00;57.30
47540;DHT22;33280;52.152;21.052;2023-04-10T11:39:12;29.60;54.70
47540;DHT22;33280;52.152;21.052;2023-04-10T11:41:42;28.40;53.60
47540;DHT22;33280;52.152;21.052;2023-04-10T11:44:15;27.30;56.30
47540;DHT22;33280;52.152;21.052;2023-04-10T11:46:43;27.70;58.00
47540;DHT22;33280;52.152;21.052;2023-04-10T11:49:25;28.10;56.10
47540;DHT22;33280;52.152;21.052;2023-04-10T11:51:52;28.90;54.60
47540;DHT22;33280;52.152;21.052;2023-04-10T11:57:04;30.50;51.30
47540;DHT22;33280;52.152;21.052;2023-04-10T11:59:32;31.10;50.40
47540;DHT22;33280;52.152;21.052;2023-04-10T12:02:07;30.40;49.50
47540;DHT22;33280;52.152;21.052;2023-04-10T12:04:36;28.40;52.00
47540;DHT22;33280;52.152;21.052;2023-04-10T12:07:08;27.80;57.30
47540;DHT22;33280;52.152;21.052;2023-04-10T12:09:37;27.60;57.50
47540;DHT22;33280;52.152;21.052;2023-04-10T12:12:06;27.80;58.60
47540;DHT22;33280;52.152;21.052;2023-04-10T12:14:38;27.60;59.00
47540;DHT22;33280;52.152;21.052;2023-04-10T12:17:10;27.60;58.70
47540;DHT22;33280;52.152;21.052;2023-04-10T12:19:37;27.40;60.50
47540;DHT22;33280;52.152;21.052;2023-04-10T12:22:05;27.20;61.70
47540;DHT22;33280;52.152;21.052;2023-04-10T12:27:22;26.70;62.10
47540;DHT22;33280;52.152;21.052;2023-04-10T12:29:52;26.10;63.30
47540;DHT22;33280;52.152;21.052;2023-04-10T12:32:20;25.20;66.20
47540;DHT22;33280;52.152;21.052;2023-04-10T12:34:52;24.80;72.10
47540;DHT22;33280;52.152;21.052;2023-04-10T12:37:25;24.60;73.80
47540;DHT22;33280;52.152;21.052;2023-04-10T12:40:12;24.80;73.20
47540;DHT22;33280;52.152;21.052;2023-04-10T12:42:40;25.10;72.60
47540;DHT22;33280;52.152;21.052;2023-04-10T12:48:26;24.40;72.40
47540;DHT22;33280;52.152;21.052;2023-04-10T12:50:54;23.50;74.20
47540;DHT22;33280;52.152;21.052;2023-04-10T12:53:24;23.00;77.30
47540;DHT22;33280;52.152;21.052;2023-04-10T12:55:56;22.70;81.00
47540;DHT22;33280;52.152;21.052;2023-04-10T12:58:26;22.40;80.00
47540;DHT22;33280;52.152;21.052;2023-04-10T13:00:54;22.60;78.90
47540;DHT22;33280;52.152;21.052;2023-04-10T13:03:22;23.20;79.90
47540;DHT22;33280;52.152;21.052;2023-04-10T13:05:50;23.90;74.60
47540;DHT22;33280;52.152;21.052;2023-04-10T13:08:18;23.90;72.50
47540;DHT22;33280;52.152;21.052;2023-04-10T13:10:45;24.50;73.50
47540;DHT22;33280;52.152;21.052;2023-04-10T13:13:14;25.00;73.30
47540;DHT22;33280;52.152;21.052;2023-04-10T13:15:42;25.50;72.60
47540;DHT22;33280;52.152;21.052;2023-04-10T13:18:09;25.80;74.20
47540;DHT22;33280;52.152;21.052;2023-04-10T13:20:38;26.00;68.30
47540;DHT22;33280;52.152;21.052;2023-04-10T13:23:06;26.00;65.60
47540;DHT22;33280;52.152;21.052;2023-04-10T13:25:36;25.70;68.50
47540;DHT22;33280;52.152;21.052;2023-04-10T13:28:08;25.60;68.40
47540;DHT22;33280;52.152;21.052;2023-04-10T13:30:40;24.90;70.60
47540;DHT22;33280;52.152;21.052;2023-04-10T13:33:12;23.70;81.00
47540;DHT22;33280;52.152;21.052;2023-04-10T13:35:43;22.60;95.70
47540;DHT22;33280;52.152;21.052;2023-04-10T13:38:10;21.80;99.90
47540;DHT22;33280;52.152;21.052;2023-04-10T13:40:37;21.10;99.90
47540;DHT22;33280;52.152;21.052;2023-04-10T13:43:04;20.60;99.90
47540;DHT22;33280;52.152;21.052;2023-04-10T13:45:32;20.10;99.90
47540;DHT22;33280;52.152;21.052;2023-04-10T13:48:00;19.60;99.90
47540;DHT22;33280;52.152;21.052;2023-04-10T13:50:27;19.20;99.90
47540;DHT22;33280;52.152;21.052;2023-04-10T13:52:54;18.70;99.90
47540;DHT22;33280;52.152;21.052;2023-04-10T13:55:21;18.30;99.90
47540;DHT22;33280;52.152;21.052;2023-04-10T13:57:48;18.00;99.90
47540;DHT22;33280;52.152;21.052;2023-04-10T14:00:33;17.70;99.90
47540;DHT22;33280;52.152;21.052;2023-04-10T14:03:06;17.40;99.90
47540;DHT22;33280;52.152;21.052;2023-04-10T14:05:44;17.00;99.90
47540;DHT22;33280;52.152;21.052;2023-04-10T14:08:32;16.70;99.90
47540;DHT22;33280;52.152;21.052;2023-04-10T14:11:35;16.60;99.90
47540;DHT22;33280;52.152;21.052;2023-04-10T14:17:22;16.30;99.90
47540;DHT22;33280;52.152;21.052;2023-04-10T14:20:00;16.30;99.90
47540;DHT22;33280;52.152;21.052;2023-04-10T14:22:27;16.30;99.90
47540;DHT22;33280;52.152;21.052;2023-04-10T14:24:55;16.30;99.90
47540;DHT22;33280;52.152;21.052;2023-04-10T14:27:38;16.30;99.90
47540;DHT22;33280;52.152;21.052;2023-04-10T14:30:21;16.30;99.90
47540;DHT22;33280;52.152;21.052;2023-04-10T14:32:48;16.20;99.90
47540;DHT22;33280;52.152;21.052;2023-04-10T14:35:16;16.20;99.90
47540;DHT22;33280;52.152;21.052;2023-04-10T14:37:46;16.00;99.90
47540;DHT22;33280;52.152;21.052;2023-04-10T14:40:13;16.00;99.90
47540;DHT22;33280;52.152;21.052;2023-04-10T14:42:40;16.00;99.90
47540;DHT22;33280;52.152;21.052;2023-04-10T14:45:07;16.00;99.90
47540;DHT22;33280;52.152;21.052;2023-04-10T14:47:35;15.90;99.90
47540;DHT22;33280;52.152;21.052;2023-04-10T14:50:02;16.00;99.90
47540;DHT22;33280;52.152;21.052;2023-04-10T14:52:29;15.90;99.90
47540;DHT22;33280;52.152;21.052;2023-04-10T14:54:56;15.90;99.90
47540;DHT22;33280;52.152;21.052;2023-04-10T14:57:23;16.00;99.90
47540;DHT22;33280;52.152;21.052;2023-04-10T14:59:50;16.00;99.90
47540;DHT22;33280;52.152;21.052;2023-04-10T15:02:17;16.00;99.90
47540;DHT22;33280;52.152;21.052;2023-04-10T15:04:45;15.90;99.90
47540;DHT22;33280;52.152;21.052;2023-04-10T15:07:12;15.80;99.90
47540;DHT22;33280;52.152;21.052;2023-04-10T15:09:39;15.60;99.90
47540;DHT22;33280;52.152;21.052;2023-04-10T15:12:07;15.60;99.90
47540;DHT22;33280;52.152;21.052;2023-04-10T15:14:34;15.60;99.90
47540;DHT22;33280;52.152;21.052;2023-04-10T15:17:01;15.70;99.90
47540;DHT22;33280;52.152;21.052;2023-04-10T15:19:28;15.70;99.90
47540;DHT22;33280;52.152;21.052;2023-04-10T15:21:56;15.80;99.90
47540;DHT22;33280;52.152;21.052;2023-04-10T15:24:23;15.80;99.90
47540;DHT22;33280;52.152;21.052;2023-04-10T15:26:50;15.80;99.90
47540;DHT22;33280;52.152;21.052;2023-04-10T15:29:19;15.90;99.90
47540;DHT22;33280;52.152;21.052;2023-04-10T15:31:46;15.90;99.90
47540;DHT22;33280;52.152;21.052;2023-04-10T15:34:13;15.90;99.90
47540;DHT22;33280;52.152;21.052;2023-04-10T15:36:40;15.80;99.90
47540;DHT22;33280;52.152;21.052;2023-04-10T15:39:07;15.80;99.90
47540;DHT22;33280;52.152;21.052;2023-04-10T15:41:34;15.80;99.90
47540;DHT22;33280;52.152;21.052;2023-04-10T15:44:01;15.80;99.90
47540;DHT22;33280;52.152;21.052;2023-04-10T15:46:29;15.80;99.90
47540;DHT22;33280;52.152;21.052;2023-04-10T15:48:59;15.80;99.90
47540;DHT22;33280;52.152;21.052;2023-04-10T15:51:26;15.80;99.90
47540;DHT22;33280;52.152;21.052;2023-04-10T15:53:53;15.80;99.90
47540;DHT22;33280;52.152;21.052;2023-04-10T15:56:21;15.70;99.90
47540;DHT22;33280;52.152;21.052;2023-04-10T15:58:48;15.70;99.90
47540;DHT22;33280;52.152;21.052;2023-04-10T16:01:15;15.70;99.90
47540;DHT22;33280;52.152;21.052;2023-04-10T16:03:42;15.70;99.90
47540;DHT22;33280;52.152;21.052;2023-04-10T16:06:09;15.70;99.90
47540;DHT22;33280;52.152;21.052;2023-04-10T16:08:36;15.60;99.90
47540;DHT22;33280;52.152;21.052;2023-04-10T16:11:03;15.60;99.90
47540;DHT22;33280;52.152;21.052;2023-04-10T16:13:31;15.70;99.90
47540;DHT22;33280;52.152;21.052;2023-04-10T16:15:58;15.60;99.90
47540;DHT22;33280;52.152;21.052;2023-04-10T16:18:27;15.60;99.90
47540;DHT22;33280;52.152;21.052;2023-04-10T16:20:53;15.60;99.90
47540;DHT22;33280;52.152;21.052;2023-04-10T16:23:21;15.70;99.90